sensor_id;sensor_type;location;lat;lon;timestamp;P1;durP1;ratioP1;P2;durP2;ratioP2
38190;SDS011;25191;47.510;19.124;2023-03-21T00:03:15;384.30;;;346.83;;
38190;SDS011;25191;47.510;19.124;2023-03-21T00:13:16;394.70;;;355.75;;
38190;SDS011;25191;47.510;19.124;2023-03-21T00:23:18;392.53;;;354.00;;
38190;SDS011;25191;47.510;19.124;2023-03-21T00:33:18;388.35;;;350.13;;
38190;SDS011;25191;47.510;19.124;2023-03-21T00:43:20;388.92;;;350.95;;
38190;SDS011;25191;47.510;19.124;2023-03-21T00:53:29;379.90;;;342.92;;
38190;SDS011;25191;47.510;19.124;2023-03-21T01:03:32;370.92;;;334.80;;
38190;SDS011;25191;47.510;19.124;2023-03-21T01:13:41;393.38;;;355.13;;
38190;SDS011;25191;47.510;19.124;2023-03-21T01:23:42;394.83;;;356.45;;
38190;SDS011;25191;47.510;19.124;2023-03-21T01:33:43;377.20;;;340.65;;
38190;SDS011;25191;47.510;19.124;2023-03-21T01:43:44;390.88;;;352.67;;
38190;SDS011;25191;47.510;19.124;2023-03-21T01:53:52;400.35;;;361.35;;
38190;SDS011;25191;47.510;19.124;2023-03-21T02:03:52;385.77;;;348.23;;
38190;SDS011;25191;47.510;19.124;2023-03-21T02:13:54;413.95;;;373.42;;
38190;SDS011;25191;47.510;19.124;2023-03-21T02:44:38;382.25;;;345.08;;
38190;SDS011;25191;47.510;19.124;2023-03-21T02:54:42;392.63;;;354.65;;
38190;SDS011;25191;47.510;19.124;2023-03-21T03:04:47;379.73;;;342.98;;
38190;SDS011;25191;47.510;19.124;2023-03-21T03:25:23;389.30;;;351.48;;
38190;SDS011;25191;47.510;19.124;2023-03-21T03:35:28;398.00;;;359.30;;
38190;SDS011;25191;47.510;19.124;2023-03-21T03:45:31;381.75;;;344.67;;
38190;SDS011;25191;47.510;19.124;2023-03-21T03:55:44;378.73;;;342.27;;
38190;SDS011;25191;47.510;19.124;2023-03-21T04:05:47;388.45;;;350.77;;
38190;SDS011;25191;47.510;19.124;2023-03-21T04:15:48;368.33;;;332.92;;
38190;SDS011;25191;47.510;19.124;2023-03-21T04:25:48;398.45;;;359.75;;
38190;SDS011;25191;47.510;19.124;2023-03-21T04:35:50;405.90;;;366.27;;
38190;SDS011;25191;47.510;19.124;2023-03-21T04:45:56;391.58;;;353.80;;
38190;SDS011;25191;47.510;19.124;2023-03-21T04:55:56;379.08;;;342.73;;
38190;SDS011;25191;47.510;19.124;2023-03-21T05:05:57;389.70;;;352.08;;
38190;SDS011;25191;47.510;19.124;2023-03-21T05:15:57;390.70;;;352.60;;
38190;SDS011;25191;47.510;19.124;2023-03-21T05:25:58;389.25;;;351.48;;
38190;SDS011;25191;47.510;19.124;2023-03-21T05:36:00;381.63;;;344.02;;
38190;SDS011;25191;47.510;19.124;2023-03-21T05:46:01;383.15;;;346.13;;
38190;SDS011;25191;47.510;19.124;2023-03-21T05:56:02;370.83;;;334.48;;
38190;SDS011;25191;47.510;19.124;2023-03-21T06:06:03;382.57;;;344.77;;
38190;SDS011;25191;47.510;19.124;2023-03-21T06:16:05;387.77;;;350.13;;
38190;SDS011;25191;47.510;19.124;2023-03-21T06:26:12;371.88;;;335.83;;
38190;SDS011;25191;47.510;19.124;2023-03-21T06:36:13;377.10;;;340.60;;
38190;SDS011;25191;47.510;19.124;2023-03-21T06:46:18;412.35;;;371.67;;
38190;SDS011;25191;47.510;19.124;2023-03-21T06:56:19;395.45;;;356.60;;
38190;SDS011;25191;47.510;19.124;2023-03-21T07:06:19;393.70;;;355.17;;
38190;SDS011;25191;47.510;19.124;2023-03-21T07:16:20;397.05;;;358.02;;
38190;SDS011;25191;47.510;19.124;2023-03-21T07:26:20;381.38;;;344.10;;
38190;SDS011;25191;47.510;19.124;2023-03-21T07:36:21;511.27;;;462.77;;
38190;SDS011;25191;47.510;19.124;2023-03-21T07:46:22;411.05;;;370.77;;
38190;SDS011;25191;47.510;19.124;2023-03-21T07:56:22;343.77;;;310.73;;
38190;SDS011;25191;47.510;19.124;2023-03-21T08:06:26;299.55;;;270.98;;
38190;SDS011;25191;47.510;19.124;2023-03-21T08:16:27;292.63;;;264.48;;
38190;SDS011;25191;47.510;19.124;2023-03-21T08:26:27;267.07;;;241.57;;
38190;SDS011;25191;47.510;19.124;2023-03-21T08:36:27;291.35;;;263.55;;
38190;SDS011;25191;47.510;19.124;2023-03-21T08:46:29;253.95;;;229.93;;
38190;SDS011;25191;47.510;19.124;2023-03-21T08:56:30;258.05;;;233.32;;
38190;SDS011;25191;47.510;19.124;2023-03-21T09:06:30;281.02;;;254.10;;
38190;SDS011;25191;47.510;19.124;2023-03-21T09:16:32;282.20;;;254.97;;
38190;SDS011;25191;47.510;19.124;2023-03-21T09:26:33;255.30;;;230.82;;
38190;SDS011;25191;47.510;19.124;2023-03-21T09:36:33;332.48;;;300.58;;
38190;SDS011;25191;47.510;19.124;2023-03-21T09:56:41;259.42;;;234.77;;
38190;SDS011;25191;47.510;19.124;2023-03-21T10:06:44;259.88;;;235.07;;
38190;SDS011;25191;47.510;19.124;2023-03-21T10:16:57;263.58;;;238.63;;
38190;SDS011;25191;47.510;19.124;2023-03-21T10:27:00;235.95;;;213.63;;
38190;SDS011;25191;47.510;19.124;2023-03-21T10:37:02;267.73;;;242.23;;
38190;SDS011;25191;47.510;19.124;2023-03-21T11:07:20;428.38;;;385.75;;
38190;SDS011;25191;47.510;19.124;2023-03-21T11:17:28;412.48;;;371.33;;
38190;SDS011;25191;47.510;19.124;2023-03-21T11:27:31;445.98;;;401.50;;
38190;SDS011;25191;47.510;19.124;2023-03-21T11:37:37;412.88;;;371.63;;
38190;SDS011;25191;47.510;19.124;2023-03-21T11:47:38;380.95;;;343.10;;
38190;SDS011;25191;47.510;19.124;2023-03-21T11:57:43;420.33;;;378.17;;
38190;SDS011;25191;47.510;19.124;2023-03-21T12:08:00;406.95;;;366.17;;
38190;SDS011;25191;47.510;19.124;2023-03-21T12:28:50;367.20;;;330.63;;
38190;SDS011;25191;47.510;19.124;2023-03-21T12:39:20;353.52;;;318.15;;
38190;SDS011;25191;47.510;19.124;2023-03-21T12:49:28;351.20;;;316.23;;
38190;SDS011;25191;47.510;19.124;2023-03-21T13:10:14;367.48;;;329.48;;
38190;SDS011;25191;47.510;19.124;2023-03-21T13:20:28;332.75;;;298.75;;
38190;SDS011;25191;47.510;19.124;2023-03-21T13:30:52;361.35;;;324.48;;
38190;SDS011;25191;47.510;19.124;2023-03-21T13:51:16;353.80;;;318.00;;
38190;SDS011;25191;47.510;19.124;2023-03-21T14:01:40;323.92;;;290.92;;
38190;SDS011;25191;47.510;19.124;2023-03-21T14:11:57;341.95;;;307.00;;
38190;SDS011;25191;47.510;19.124;2023-03-21T14:21:59;327.55;;;294.30;;
38190;SDS011;25191;47.510;19.124;2023-03-21T14:32:00;349.70;;;314.45;;
38190;SDS011;25191;47.510;19.124;2023-03-21T14:42:07;365.40;;;328.60;;
38190;SDS011;25191;47.510;19.124;2023-03-21T14:52:12;372.10;;;334.02;;
38190;SDS011;25191;47.510;19.124;2023-03-21T15:02:18;338.65;;;304.35;;
38190;SDS011;25191;47.510;19.124;2023-03-21T15:12:21;336.95;;;302.73;;
38190;SDS011;25191;47.510;19.124;2023-03-21T15:22:34;339.02;;;304.50;;
38190;SDS011;25191;47.510;19.124;2023-03-21T15:32:38;367.08;;;329.42;;
38190;SDS011;25191;47.510;19.124;2023-03-21T15:42:40;304.77;;;273.52;;
38190;SDS011;25191;47.510;19.124;2023-03-21T15:52:41;285.88;;;256.80;;
38190;SDS011;25191;47.510;19.124;2023-03-21T16:02:42;301.90;;;270.90;;
38190;SDS011;25191;47.510;19.124;2023-03-21T16:12:42;299.37;;;268.97;;
38190;SDS011;25191;47.510;19.124;2023-03-21T16:22:43;235.48;;;212.32;;
38190;SDS011;25191;47.510;19.124;2023-03-21T16:32:45;520.95;;;470.48;;
38190;SDS011;25191;47.510;19.124;2023-03-21T16:42:46;666.10;;;605.38;;
38190;SDS011;25191;47.510;19.124;2023-03-21T16:52:47;398.65;;;359.10;;
38190;SDS011;25191;47.510;19.124;2023-03-21T17:02:49;314.87;;;284.10;;
38190;SDS011;25191;47.510;19.124;2023-03-21T17:22:51;926.75;;;848.92;;
38190;SDS011;25191;47.510;19.124;2023-03-21T17:32:52;999.10;;;916.65;;
38190;SDS011;25191;47.510;19.124;2023-03-21T17:42:53;780.37;;;711.97;;
38190;SDS011;25191;47.510;19.124;2023-03-21T17:52:56;750.78;;;684.53;;
38190;SDS011;25191;47.510;19.124;2023-03-21T18:02:58;718.07;;;654.27;;
38190;SDS011;25191;47.510;19.124;2023-03-21T18:12:59;739.13;;;673.53;;
38190;SDS011;25191;47.510;19.124;2023-03-21T18:22:59;735.30;;;667.47;;
38190;SDS011;25191;47.510;19.124;2023-03-21T18:33:00;716.28;;;649.92;;
38190;SDS011;25191;47.510;19.124;2023-03-21T18:43:04;770.65;;;700.20;;
38190;SDS011;25191;47.510;19.124;2023-03-21T18:53:05;836.33;;;761.43;;
38190;SDS011;25191;47.510;19.124;2023-03-21T19:03:06;1118.25;;;790.88;;
38190;SDS011;25191;47.510;19.124;2023-03-21T19:13:07;1145.40;;;866.20;;
38190;SDS011;25191;47.510;19.124;2023-03-21T19:23:08;818.50;;;727.15;;
38190;SDS011;25191;47.510;19.124;2023-03-21T19:33:09;799.67;;;719.55;;
38190;SDS011;25191;47.510;19.124;2023-03-21T19:43:10;835.47;;;755.83;;
38190;SDS011;25191;47.510;19.124;2023-03-21T19:53:12;852.85;;;772.58;;
38190;SDS011;25191;47.510;19.124;2023-03-21T20:03:13;887.65;;;808.10;;
38190;SDS011;25191;47.510;19.124;2023-03-21T20:13:14;834.07;;;755.53;;
38190;SDS011;25191;47.510;19.124;2023-03-21T20:23:15;845.50;;;767.92;;
38190;SDS011;25191;47.510;19.124;2023-03-21T20:33:19;851.03;;;773.00;;
38190;SDS011;25191;47.510;19.124;2023-03-21T20:43:20;848.50;;;770.25;;
38190;SDS011;25191;47.510;19.124;2023-03-21T20:53:21;880.58;;;801.60;;
38190;SDS011;25191;47.510;19.124;2023-03-21T21:03:23;867.23;;;788.50;;
38190;SDS011;25191;47.510;19.124;2023-03-21T21:13:24;743.55;;;674.45;;
38190;SDS011;25191;47.510;19.124;2023-03-21T21:23:24;719.17;;;652.50;;
38190;SDS011;25191;47.510;19.124;2023-03-21T21:33:28;745.60;;;677.15;;
38190;SDS011;25191;47.510;19.124;2023-03-21T21:43:28;714.90;;;648.67;;
38190;SDS011;25191;47.510;19.124;2023-03-21T21:53:29;714.75;;;648.80;;
38190;SDS011;25191;47.510;19.124;2023-03-21T22:03:34;718.38;;;652.25;;
38190;SDS011;25191;47.510;19.124;2023-03-21T22:13:44;702.95;;;638.72;;
38190;SDS011;25191;47.510;19.124;2023-03-21T22:23:47;705.42;;;640.75;;
38190;SDS011;25191;47.510;19.124;2023-03-21T22:33:47;724.00;;;658.30;;
38190;SDS011;25191;47.510;19.124;2023-03-21T22:43:48;711.67;;;647.08;;
38190;SDS011;25191;47.510;19.124;2023-03-21T22:53:49;725.05;;;659.38;;
38190;SDS011;25191;47.510;19.124;2023-03-21T23:03:50;837.08;;;763.53;;
38190;SDS011;25191;47.510;19.124;2023-03-21T23:13:51;979.92;;;897.38;;
38190;SDS011;25191;47.510;19.124;2023-03-21T23:23:57;1029.20;;;944.30;;
38190;SDS011;25191;47.510;19.124;2023-03-21T23:33:57;1024.40;;;939.42;;
38190;SDS011;25191;47.510;19.124;2023-03-21T23:43:59;1049.75;;;963.70;;
38190;SDS011;25191;47.510;19.124;2023-03-21T23:54:00;1025.95;;;941.50;;
